sensor_id;sensor_type;location;lat;lon;timestamp;P1;durP1;ratioP1;P2;durP2;ratioP2
5245;SDS011;54412;51.206;6.888;2023-02-28T00:00:12;3.90;;;3.57;;
5245;SDS011;54412;51.206;6.888;2023-02-28T00:02:40;5.67;;;3.23;;
5245;SDS011;54412;51.206;6.888;2023-02-28T00:05:08;4.27;;;3.47;;
5245;SDS011;54412;51.206;6.888;2023-02-28T00:07:36;3.97;;;3.60;;
5245;SDS011;54412;51.206;6.888;2023-02-28T00:10:03;3.67;;;3.37;;
5245;SDS011;54412;51.206;6.888;2023-02-28T00:12:32;6.50;;;3.77;;
5245;SDS011;54412;51.206;6.888;2023-02-28T00:14:59;5.63;;;3.70;;
5245;SDS011;54412;51.206;6.888;2023-02-28T00:17:25;3.40;;;3.10;;
5245;SDS011;54412;51.206;6.888;2023-02-28T00:19:51;4.90;;;3.20;;
5245;SDS011;54412;51.206;6.888;2023-02-28T00:22:17;8.50;;;3.20;;
5245;SDS011;54412;51.206;6.888;2023-02-28T00:24:45;3.93;;;3.43;;
5245;SDS011;54412;51.206;6.888;2023-02-28T00:27:12;4.67;;;3.63;;
5245;SDS011;54412;51.206;6.888;2023-02-28T00:29:39;8.50;;;3.50;;
5245;SDS011;54412;51.206;6.888;2023-02-28T00:32:05;3.83;;;3.20;;
5245;SDS011;54412;51.206;6.888;2023-02-28T00:34:31;3.47;;;3.17;;
5245;SDS011;54412;51.206;6.888;2023-02-28T00:37:02;3.50;;;3.20;;
5245;SDS011;54412;51.206;6.888;2023-02-28T00:39:30;3.53;;;3.10;;
5245;SDS011;54412;51.206;6.888;2023-02-28T00:41:58;11.60;;;4.40;;
5245;SDS011;54412;51.206;6.888;2023-02-28T00:44:24;5.70;;;4.33;;
5245;SDS011;54412;51.206;6.888;2023-02-28T00:46:49;4.47;;;3.17;;
5245;SDS011;54412;51.206;6.888;2023-02-28T00:49:16;5.80;;;3.50;;
5245;SDS011;54412;51.206;6.888;2023-02-28T00:51:42;5.90;;;3.83;;
5245;SDS011;54412;51.206;6.888;2023-02-28T00:54:08;5.40;;;3.20;;
5245;SDS011;54412;51.206;6.888;2023-02-28T00:56:34;10.20;;;3.40;;
5245;SDS011;54412;51.206;6.888;2023-02-28T00:58:59;5.80;;;3.90;;
5245;SDS011;54412;51.206;6.888;2023-02-28T01:01:25;3.67;;;3.30;;
5245;SDS011;54412;51.206;6.888;2023-02-28T01:03:51;7.10;;;3.70;;
5245;SDS011;54412;51.206;6.888;2023-02-28T01:06:16;11.90;;;3.50;;
5245;SDS011;54412;51.206;6.888;2023-02-28T01:08:42;6.30;;;3.73;;
5245;SDS011;54412;51.206;6.888;2023-02-28T01:11:11;7.20;;;3.77;;
5245;SDS011;54412;51.206;6.888;2023-02-28T01:13:40;4.43;;;3.30;;
5245;SDS011;54412;51.206;6.888;2023-02-28T01:16:06;3.97;;;3.67;;
5245;SDS011;54412;51.206;6.888;2023-02-28T01:18:33;5.63;;;3.87;;
5245;SDS011;54412;51.206;6.888;2023-02-28T01:21:02;5.47;;;3.33;;
5245;SDS011;54412;51.206;6.888;2023-02-28T01:23:34;6.73;;;4.00;;
5245;SDS011;54412;51.206;6.888;2023-02-28T01:26:04;5.67;;;3.90;;
5245;SDS011;54412;51.206;6.888;2023-02-28T01:28:32;6.80;;;3.90;;
5245;SDS011;54412;51.206;6.888;2023-02-28T01:30:58;6.07;;;3.73;;
5245;SDS011;54412;51.206;6.888;2023-02-28T01:33:24;6.83;;;4.00;;
5245;SDS011;54412;51.206;6.888;2023-02-28T01:35:57;3.73;;;3.40;;
5245;SDS011;54412;51.206;6.888;2023-02-28T01:38:24;4.00;;;3.40;;
5245;SDS011;54412;51.206;6.888;2023-02-28T01:40:50;5.60;;;3.30;;
5245;SDS011;54412;51.206;6.888;2023-02-28T01:43:23;7.27;;;4.00;;
5245;SDS011;54412;51.206;6.888;2023-02-28T01:45:52;3.90;;;3.20;;
5245;SDS011;54412;51.206;6.888;2023-02-28T01:48:19;4.60;;;4.17;;
5245;SDS011;54412;51.206;6.888;2023-02-28T01:50:58;7.70;;;3.43;;
5245;SDS011;54412;51.206;6.888;2023-02-28T01:53:34;6.70;;;4.30;;
5245;SDS011;54412;51.206;6.888;2023-02-28T01:56:08;3.63;;;3.07;;
5245;SDS011;54412;51.206;6.888;2023-02-28T01:58:38;7.57;;;3.30;;
5245;SDS011;54412;51.206;6.888;2023-02-28T02:01:04;3.93;;;3.63;;
5245;SDS011;54412;51.206;6.888;2023-02-28T02:03:30;4.67;;;3.50;;
5245;SDS011;54412;51.206;6.888;2023-02-28T02:05:56;4.93;;;4.17;;
5245;SDS011;54412;51.206;6.888;2023-02-28T02:08:23;6.10;;;4.17;;
5245;SDS011;54412;51.206;6.888;2023-02-28T02:10:59;11.30;;;4.13;;
5245;SDS011;54412;51.206;6.888;2023-02-28T02:19:22;7.90;;;4.00;;
5245;SDS011;54412;51.206;6.888;2023-02-28T02:31:14;7.50;;;4.47;;
5245;SDS011;54412;51.206;6.888;2023-02-28T02:34:01;4.47;;;4.03;;
5245;SDS011;54412;51.206;6.888;2023-02-28T02:36:52;4.03;;;3.60;;
5245;SDS011;54412;51.206;6.888;2023-02-28T02:39:47;4.27;;;3.87;;
5245;SDS011;54412;51.206;6.888;2023-02-28T02:42:31;4.90;;;4.23;;
5245;SDS011;54412;51.206;6.888;2023-02-28T02:45:09;5.23;;;3.70;;
5245;SDS011;54412;51.206;6.888;2023-02-28T02:47:53;9.53;;;4.60;;
5245;SDS011;54412;51.206;6.888;2023-02-28T02:50:24;6.93;;;4.43;;
5245;SDS011;54412;51.206;6.888;2023-02-28T02:52:59;7.83;;;4.23;;
5245;SDS011;54412;51.206;6.888;2023-02-28T02:55:28;4.33;;;3.87;;
5245;SDS011;54412;51.206;6.888;2023-02-28T02:58:00;4.50;;;4.07;;
5245;SDS011;54412;51.206;6.888;2023-02-28T03:00:34;5.23;;;3.90;;
5245;SDS011;54412;51.206;6.888;2023-02-28T03:03:14;7.30;;;4.47;;
5245;SDS011;54412;51.206;6.888;2023-02-28T03:05:46;3.80;;;3.50;;
5245;SDS011;54412;51.206;6.888;2023-02-28T03:08:14;3.70;;;3.40;;
5245;SDS011;54412;51.206;6.888;2023-02-28T03:10:42;5.10;;;3.70;;
5245;SDS011;54412;51.206;6.888;2023-02-28T03:19:12;9.63;;;5.37;;
5245;SDS011;54412;51.206;6.888;2023-02-28T03:28:08;7.93;;;4.23;;
5245;SDS011;54412;51.206;6.888;2023-02-28T03:31:03;6.87;;;4.00;;
5245;SDS011;54412;51.206;6.888;2023-02-28T03:33:58;4.67;;;3.90;;
5245;SDS011;54412;51.206;6.888;2023-02-28T03:36:37;4.57;;;4.17;;
5245;SDS011;54412;51.206;6.888;2023-02-28T03:39:11;4.60;;;4.20;;
5245;SDS011;54412;51.206;6.888;2023-02-28T03:42:20;5.97;;;4.27;;
5245;SDS011;54412;51.206;6.888;2023-02-28T03:44:56;5.83;;;3.97;;
5245;SDS011;54412;51.206;6.888;2023-02-28T03:47:29;4.00;;;3.70;;
5245;SDS011;54412;51.206;6.888;2023-02-28T03:50:10;5.63;;;4.43;;
5245;SDS011;54412;51.206;6.888;2023-02-28T03:52:47;6.47;;;4.40;;
5245;SDS011;54412;51.206;6.888;2023-02-28T03:55:34;8.13;;;4.97;;
5245;SDS011;54412;51.206;6.888;2023-02-28T03:58:14;5.50;;;4.33;;
5245;SDS011;54412;51.206;6.888;2023-02-28T04:01:11;5.93;;;3.93;;
5245;SDS011;54412;51.206;6.888;2023-02-28T04:03:49;5.70;;;4.20;;
5245;SDS011;54412;51.206;6.888;2023-02-28T04:06:16;6.30;;;3.60;;
5245;SDS011;54412;51.206;6.888;2023-02-28T04:08:45;3.47;;;3.10;;
5245;SDS011;54412;51.206;6.888;2023-02-28T04:11:20;7.23;;;3.97;;
5245;SDS011;54412;51.206;6.888;2023-02-28T04:13:59;9.60;;;5.30;;
5245;SDS011;54412;51.206;6.888;2023-02-28T04:16:29;4.73;;;3.50;;
5245;SDS011;54412;51.206;6.888;2023-02-28T04:18:57;4.60;;;3.70;;
5245;SDS011;54412;51.206;6.888;2023-02-28T04:21:30;12.33;;;4.10;;
5245;SDS011;54412;51.206;6.888;2023-02-28T04:23:59;10.43;;;4.17;;
5245;SDS011;54412;51.206;6.888;2023-02-28T04:26:31;6.03;;;3.90;;
5245;SDS011;54412;51.206;6.888;2023-02-28T04:28:59;6.03;;;3.83;;
5245;SDS011;54412;51.206;6.888;2023-02-28T04:31:27;8.40;;;4.43;;
5245;SDS011;54412;51.206;6.888;2023-02-28T04:33:53;4.50;;;4.00;;
5245;SDS011;54412;51.206;6.888;2023-02-28T04:36:19;6.23;;;4.10;;
5245;SDS011;54412;51.206;6.888;2023-02-28T04:38:45;7.93;;;3.90;;
5245;SDS011;54412;51.206;6.888;2023-02-28T04:41:12;5.00;;;4.00;;
5245;SDS011;54412;51.206;6.888;2023-02-28T04:43:38;6.80;;;3.63;;
5245;SDS011;54412;51.206;6.888;2023-02-28T04:46:04;12.53;;;3.60;;
5245;SDS011;54412;51.206;6.888;2023-02-28T04:48:32;7.57;;;4.50;;
5245;SDS011;54412;51.206;6.888;2023-02-28T04:51:01;5.13;;;3.60;;
5245;SDS011;54412;51.206;6.888;2023-02-28T04:53:34;4.27;;;3.00;;
5245;SDS011;54412;51.206;6.888;2023-02-28T04:56:02;4.77;;;3.47;;
5245;SDS011;54412;51.206;6.888;2023-02-28T04:58:28;5.63;;;3.70;;
5245;SDS011;54412;51.206;6.888;2023-02-28T05:00:56;3.47;;;3.17;;
5245;SDS011;54412;51.206;6.888;2023-02-28T05:03:38;4.80;;;2.93;;
5245;SDS011;54412;51.206;6.888;2023-02-28T05:06:08;3.47;;;2.87;;
5245;SDS011;54412;51.206;6.888;2023-02-28T05:08:35;4.13;;;2.97;;
5245;SDS011;54412;51.206;6.888;2023-02-28T05:11:01;2.67;;;2.47;;
5245;SDS011;54412;51.206;6.888;2023-02-28T05:13:27;4.07;;;3.50;;
5245;SDS011;54412;51.206;6.888;2023-02-28T05:15:53;5.57;;;3.13;;
5245;SDS011;54412;51.206;6.888;2023-02-28T05:18:20;2.73;;;2.53;;
5245;SDS011;54412;51.206;6.888;2023-02-28T05:20:46;3.27;;;2.60;;
5245;SDS011;54412;51.206;6.888;2023-02-28T05:23:12;4.87;;;2.97;;
5245;SDS011;54412;51.206;6.888;2023-02-28T05:25:39;5.53;;;3.40;;
5245;SDS011;54412;51.206;6.888;2023-02-28T05:28:06;3.00;;;2.67;;
5245;SDS011;54412;51.206;6.888;2023-02-28T05:30:32;3.40;;;3.10;;
5245;SDS011;54412;51.206;6.888;2023-02-28T05:32:58;3.20;;;2.90;;
5245;SDS011;54412;51.206;6.888;2023-02-28T05:35:24;4.83;;;3.43;;
5245;SDS011;54412;51.206;6.888;2023-02-28T05:37:51;3.63;;;2.90;;
5245;SDS011;54412;51.206;6.888;2023-02-28T05:40:17;5.67;;;3.10;;
5245;SDS011;54412;51.206;6.888;2023-02-28T05:42:45;8.57;;;3.03;;
5245;SDS011;54412;51.206;6.888;2023-02-28T05:45:11;6.63;;;3.50;;
5245;SDS011;54412;51.206;6.888;2023-02-28T05:47:37;3.23;;;3.03;;
5245;SDS011;54412;51.206;6.888;2023-02-28T05:50:04;3.33;;;3.03;;
5245;SDS011;54412;51.206;6.888;2023-02-28T05:52:31;11.90;;;4.20;;
5245;SDS011;54412;51.206;6.888;2023-02-28T05:54:57;4.07;;;3.67;;
5245;SDS011;54412;51.206;6.888;2023-02-28T05:57:23;5.70;;;4.07;;
5245;SDS011;54412;51.206;6.888;2023-02-28T05:59:49;4.00;;;3.20;;
5245;SDS011;54412;51.206;6.888;2023-02-28T06:02:16;6.27;;;4.10;;
5245;SDS011;54412;51.206;6.888;2023-02-28T06:04:43;4.80;;;4.00;;
5245;SDS011;54412;51.206;6.888;2023-02-28T06:07:09;5.83;;;3.87;;
5245;SDS011;54412;51.206;6.888;2023-02-28T06:09:35;4.07;;;3.27;;
5245;SDS011;54412;51.206;6.888;2023-02-28T06:12:02;3.53;;;3.20;;
5245;SDS011;54412;51.206;6.888;2023-02-28T06:14:32;4.13;;;3.40;;
5245;SDS011;54412;51.206;6.888;2023-02-28T06:17:00;4.70;;;3.10;;
5245;SDS011;54412;51.206;6.888;2023-02-28T06:19:26;3.63;;;3.33;;
5245;SDS011;54412;51.206;6.888;2023-02-28T06:21:54;3.43;;;2.90;;
5245;SDS011;54412;51.206;6.888;2023-02-28T06:24:22;5.30;;;2.80;;
5245;SDS011;54412;51.206;6.888;2023-02-28T06:26:52;5.60;;;2.93;;
5245;SDS011;54412;51.206;6.888;2023-02-28T06:29:18;4.80;;;3.30;;
5245;SDS011;54412;51.206;6.888;2023-02-28T06:31:44;5.40;;;2.73;;
5245;SDS011;54412;51.206;6.888;2023-02-28T06:34:11;5.70;;;2.80;;
5245;SDS011;54412;51.206;6.888;2023-02-28T06:36:38;3.90;;;2.90;;
5245;SDS011;54412;51.206;6.888;2023-02-28T06:39:05;4.13;;;3.73;;
5245;SDS011;54412;51.206;6.888;2023-02-28T06:41:32;14.40;;;3.70;;
5245;SDS011;54412;51.206;6.888;2023-02-28T06:44:09;3.20;;;2.90;;
5245;SDS011;54412;51.206;6.888;2023-02-28T06:46:39;6.53;;;3.63;;
5245;SDS011;54412;51.206;6.888;2023-02-28T06:49:08;10.20;;;3.70;;
5245;SDS011;54412;51.206;6.888;2023-02-28T06:51:35;6.87;;;3.60;;
5245;SDS011;54412;51.206;6.888;2023-02-28T06:54:04;11.40;;;3.63;;
5245;SDS011;54412;51.206;6.888;2023-02-28T06:56:34;4.80;;;3.80;;
5245;SDS011;54412;51.206;6.888;2023-02-28T06:59:00;5.27;;;3.20;;
5245;SDS011;54412;51.206;6.888;2023-02-28T07:01:26;8.00;;;3.43;;
5245;SDS011;54412;51.206;6.888;2023-02-28T07:03:53;3.60;;;3.17;;
5245;SDS011;54412;51.206;6.888;2023-02-28T07:06:20;3.60;;;2.93;;
5245;SDS011;54412;51.206;6.888;2023-02-28T07:08:50;3.73;;;2.83;;
5245;SDS011;54412;51.206;6.888;2023-02-28T07:11:18;3.73;;;3.33;;
5245;SDS011;54412;51.206;6.888;2023-02-28T07:13:47;6.27;;;3.00;;
5245;SDS011;54412;51.206;6.888;2023-02-28T07:16:14;4.73;;;3.13;;
5245;SDS011;54412;51.206;6.888;2023-02-28T07:18:39;5.40;;;2.70;;
5245;SDS011;54412;51.206;6.888;2023-02-28T07:21:06;3.70;;;3.30;;
5245;SDS011;54412;51.206;6.888;2023-02-28T07:23:34;4.60;;;2.83;;
5245;SDS011;54412;51.206;6.888;2023-02-28T07:26:02;8.90;;;3.70;;
5245;SDS011;54412;51.206;6.888;2023-02-28T07:28:29;2.87;;;2.67;;
5245;SDS011;54412;51.206;6.888;2023-02-28T07:30:55;8.50;;;3.30;;
5245;SDS011;54412;51.206;6.888;2023-02-28T07:33:21;2.90;;;2.63;;
5245;SDS011;54412;51.206;6.888;2023-02-28T07:35:48;3.70;;;2.80;;
5245;SDS011;54412;51.206;6.888;2023-02-28T07:38:14;3.10;;;2.80;;
5245;SDS011;54412;51.206;6.888;2023-02-28T07:40:40;3.60;;;3.30;;
5245;SDS011;54412;51.206;6.888;2023-02-28T07:43:06;5.27;;;3.00;;
5245;SDS011;54412;51.206;6.888;2023-02-28T07:45:32;3.23;;;2.53;;
5245;SDS011;54412;51.206;6.888;2023-02-28T07:47:59;4.83;;;2.93;;
5245;SDS011;54412;51.206;6.888;2023-02-28T07:50:26;5.70;;;3.70;;
5245;SDS011;54412;51.206;6.888;2023-02-28T07:52:55;3.27;;;2.53;;
5245;SDS011;54412;51.206;6.888;2023-02-28T07:55:23;2.37;;;2.17;;
5245;SDS011;54412;51.206;6.888;2023-02-28T07:57:48;2.70;;;2.50;;
5245;SDS011;54412;51.206;6.888;2023-02-28T08:00:14;7.93;;;2.60;;
5245;SDS011;54412;51.206;6.888;2023-02-28T08:02:40;2.90;;;2.27;;
5245;SDS011;54412;51.206;6.888;2023-02-28T08:05:06;2.40;;;2.20;;
5245;SDS011;54412;51.206;6.888;2023-02-28T08:07:33;3.70;;;2.00;;
5245;SDS011;54412;51.206;6.888;2023-02-28T08:09:58;2.40;;;2.20;;
5245;SDS011;54412;51.206;6.888;2023-02-28T08:12:25;6.00;;;2.10;;
5245;SDS011;54412;51.206;6.888;2023-02-28T08:14:51;4.03;;;2.37;;
5245;SDS011;54412;51.206;6.888;2023-02-28T08:17:16;4.37;;;2.53;;
5245;SDS011;54412;51.206;6.888;2023-02-28T08:19:44;3.90;;;2.33;;
5245;SDS011;54412;51.206;6.888;2023-02-28T08:22:11;2.70;;;2.50;;
5245;SDS011;54412;51.206;6.888;2023-02-28T08:24:37;2.13;;;2.03;;
5245;SDS011;54412;51.206;6.888;2023-02-28T08:27:03;3.63;;;2.10;;
5245;SDS011;54412;51.206;6.888;2023-02-28T08:29:29;3.20;;;2.17;;
5245;SDS011;54412;51.206;6.888;2023-02-28T08:31:55;3.47;;;1.90;;
5245;SDS011;54412;51.206;6.888;2023-02-28T08:34:22;1.50;;;1.40;;
5245;SDS011;54412;51.206;6.888;2023-02-28T08:36:48;2.00;;;1.90;;
5245;SDS011;54412;51.206;6.888;2023-02-28T08:39:13;1.90;;;1.80;;
5245;SDS011;54412;51.206;6.888;2023-02-28T08:41:39;2.27;;;2.17;;
5245;SDS011;54412;51.206;6.888;2023-02-28T08:44:05;2.00;;;1.90;;
5245;SDS011;54412;51.206;6.888;2023-02-28T08:46:30;2.77;;;2.10;;
5245;SDS011;54412;51.206;6.888;2023-02-28T08:48:56;8.33;;;1.90;;
5245;SDS011;54412;51.206;6.888;2023-02-28T08:51:26;1.83;;;1.83;;
5245;SDS011;54412;51.206;6.888;2023-02-28T08:53:53;7.43;;;1.93;;
5245;SDS011;54412;51.206;6.888;2023-02-28T08:56:22;2.57;;;2.20;;
5245;SDS011;54412;51.206;6.888;2023-02-28T08:58:49;3.43;;;2.03;;
5245;SDS011;54412;51.206;6.888;2023-02-28T09:01:19;2.67;;;1.87;;
5245;SDS011;54412;51.206;6.888;2023-02-28T09:03:49;1.57;;;1.47;;
5245;SDS011;54412;51.206;6.888;2023-02-28T09:06:16;5.50;;;2.23;;
5245;SDS011;54412;51.206;6.888;2023-02-28T09:08:45;1.40;;;1.33;;
5245;SDS011;54412;51.206;6.888;2023-02-28T09:11:11;1.47;;;1.40;;
5245;SDS011;54412;51.206;6.888;2023-02-28T09:13:37;1.90;;;1.80;;
5245;SDS011;54412;51.206;6.888;2023-02-28T09:16:05;1.70;;;1.60;;
5245;SDS011;54412;51.206;6.888;2023-02-28T09:18:36;1.50;;;1.40;;
5245;SDS011;54412;51.206;6.888;2023-02-28T09:21:04;2.40;;;1.80;;
5245;SDS011;54412;51.206;6.888;2023-02-28T09:23:32;1.63;;;1.53;;
5245;SDS011;54412;51.206;6.888;2023-02-28T09:25:57;1.10;;;1.10;;
5245;SDS011;54412;51.206;6.888;2023-02-28T09:28:23;2.50;;;2.10;;
5245;SDS011;54412;51.206;6.888;2023-02-28T09:30:50;3.10;;;1.47;;
5245;SDS011;54412;51.206;6.888;2023-02-28T09:33:19;1.77;;;1.63;;
5245;SDS011;54412;51.206;6.888;2023-02-28T09:35:46;3.73;;;1.70;;
5245;SDS011;54412;51.206;6.888;2023-02-28T09:38:13;1.80;;;1.70;;
5245;SDS011;54412;51.206;6.888;2023-02-28T09:41:00;1.23;;;1.23;;
5245;SDS011;54412;51.206;6.888;2023-02-28T09:43:37;7.33;;;2.33;;
5245;SDS011;54412;51.206;6.888;2023-02-28T09:46:12;2.30;;;1.70;;
5245;SDS011;54412;51.206;6.888;2023-02-28T09:48:57;1.40;;;1.40;;
5245;SDS011;54412;51.206;6.888;2023-02-28T09:54:09;3.73;;;1.90;;
5245;SDS011;54412;51.206;6.888;2023-02-28T09:56:49;1.63;;;1.30;;
5245;SDS011;54412;51.206;6.888;2023-02-28T10:02:46;1.43;;;1.43;;
5245;SDS011;54412;51.206;6.888;2023-02-28T10:05:33;6.93;;;1.57;;
5245;SDS011;54412;51.206;6.888;2023-02-28T10:08:11;4.10;;;1.30;;
5245;SDS011;54412;51.206;6.888;2023-02-28T10:10:54;2.80;;;1.43;;
5245;SDS011;54412;51.206;6.888;2023-02-28T10:13:26;1.63;;;1.53;;
5245;SDS011;54412;51.206;6.888;2023-02-28T10:16:25;4.70;;;1.90;;
5245;SDS011;54412;51.206;6.888;2023-02-28T10:19:03;1.77;;;1.40;;
5245;SDS011;54412;51.206;6.888;2023-02-28T10:21:57;1.53;;;1.43;;
5245;SDS011;54412;51.206;6.888;2023-02-28T10:27:00;3.60;;;1.90;;
5245;SDS011;54412;51.206;6.888;2023-02-28T10:29:39;2.40;;;1.70;;
5245;SDS011;54412;51.206;6.888;2023-02-28T10:32:11;1.87;;;1.77;;
5245;SDS011;54412;51.206;6.888;2023-02-28T10:34:43;4.83;;;1.50;;
5245;SDS011;54412;51.206;6.888;2023-02-28T10:37:10;1.77;;;1.60;;
5245;SDS011;54412;51.206;6.888;2023-02-28T10:42:18;2.07;;;1.60;;
5245;SDS011;54412;51.206;6.888;2023-02-28T10:45:11;1.47;;;1.40;;
5245;SDS011;54412;51.206;6.888;2023-02-28T11:01:44;2.47;;;1.70;;
5245;SDS011;54412;51.206;6.888;2023-02-28T11:04:31;1.50;;;1.40;;
5245;SDS011;54412;51.206;6.888;2023-02-28T11:07:06;2.10;;;1.77;;
5245;SDS011;54412;51.206;6.888;2023-02-28T11:09:46;2.00;;;1.73;;
5245;SDS011;54412;51.206;6.888;2023-02-28T11:12:36;3.00;;;2.00;;
5245;SDS011;54412;51.206;6.888;2023-02-28T11:15:24;3.17;;;1.60;;
5245;SDS011;54412;51.206;6.888;2023-02-28T11:20:37;1.70;;;1.60;;
5245;SDS011;54412;51.206;6.888;2023-02-28T11:23:05;1.70;;;1.60;;
5245;SDS011;54412;51.206;6.888;2023-02-28T11:25:39;1.20;;;1.20;;
5245;SDS011;54412;51.206;6.888;2023-02-28T11:28:29;1.53;;;1.53;;
5245;SDS011;54412;51.206;6.888;2023-02-28T11:33:52;2.27;;;1.60;;
5245;SDS011;54412;51.206;6.888;2023-02-28T11:36:22;1.80;;;1.70;;
5245;SDS011;54412;51.206;6.888;2023-02-28T11:38:56;2.63;;;1.97;;
5245;SDS011;54412;51.206;6.888;2023-02-28T11:44:22;3.00;;;1.87;;
5245;SDS011;54412;51.206;6.888;2023-02-28T11:47:26;1.90;;;1.80;;
5245;SDS011;54412;51.206;6.888;2023-02-28T11:58:30;2.90;;;1.80;;
5245;SDS011;54412;51.206;6.888;2023-02-28T12:07:40;2.00;;;1.90;;
5245;SDS011;54412;51.206;6.888;2023-02-28T12:10:29;1.50;;;1.50;;
5245;SDS011;54412;51.206;6.888;2023-02-28T12:13:16;1.60;;;1.50;;
5245;SDS011;54412;51.206;6.888;2023-02-28T12:21:29;2.03;;;1.93;;
5245;SDS011;54412;51.206;6.888;2023-02-28T12:27:45;1.67;;;1.57;;
5245;SDS011;54412;51.206;6.888;2023-02-28T12:30:33;1.87;;;1.60;;
5245;SDS011;54412;51.206;6.888;2023-02-28T12:33:08;1.37;;;1.27;;
5245;SDS011;54412;51.206;6.888;2023-02-28T12:35:43;2.30;;;2.10;;
5245;SDS011;54412;51.206;6.888;2023-02-28T12:38:29;2.10;;;1.90;;
5245;SDS011;54412;51.206;6.888;2023-02-28T12:41:14;1.97;;;1.80;;
5245;SDS011;54412;51.206;6.888;2023-02-28T12:43:51;2.20;;;2.00;;
5245;SDS011;54412;51.206;6.888;2023-02-28T12:49:11;1.70;;;1.60;;
5245;SDS011;54412;51.206;6.888;2023-02-28T12:51:56;3.00;;;2.17;;
5245;SDS011;54412;51.206;6.888;2023-02-28T12:54:45;1.90;;;1.80;;
5245;SDS011;54412;51.206;6.888;2023-02-28T12:58:05;2.10;;;1.90;;
5245;SDS011;54412;51.206;6.888;2023-02-28T13:00:33;3.33;;;1.80;;
5245;SDS011;54412;51.206;6.888;2023-02-28T13:09:09;1.70;;;1.60;;
5245;SDS011;54412;51.206;6.888;2023-02-28T13:11:47;1.50;;;1.40;;
5245;SDS011;54412;51.206;6.888;2023-02-28T13:14:21;4.13;;;1.87;;
5245;SDS011;54412;51.206;6.888;2023-02-28T13:19:45;3.23;;;1.83;;
5245;SDS011;54412;51.206;6.888;2023-02-28T13:22:18;3.80;;;1.40;;
5245;SDS011;54412;51.206;6.888;2023-02-28T13:25:13;6.87;;;2.20;;
5245;SDS011;54412;51.206;6.888;2023-02-28T13:28:12;2.43;;;2.07;;
5245;SDS011;54412;51.206;6.888;2023-02-28T13:31:13;1.50;;;1.37;;
5245;SDS011;54412;51.206;6.888;2023-02-28T13:36:27;2.00;;;1.80;;
5245;SDS011;54412;51.206;6.888;2023-02-28T13:38:59;2.40;;;2.30;;
5245;SDS011;54412;51.206;6.888;2023-02-28T13:59:06;2.17;;;1.97;;
5245;SDS011;54412;51.206;6.888;2023-02-28T14:05:00;2.53;;;1.83;;
5245;SDS011;54412;51.206;6.888;2023-02-28T14:07:43;1.60;;;1.50;;
5245;SDS011;54412;51.206;6.888;2023-02-28T14:10:22;2.57;;;2.00;;
5245;SDS011;54412;51.206;6.888;2023-02-28T14:15:41;1.90;;;1.80;;
5245;SDS011;54412;51.206;6.888;2023-02-28T14:18:30;4.87;;;2.27;;
5245;SDS011;54412;51.206;6.888;2023-02-28T14:21:24;2.60;;;2.40;;
5245;SDS011;54412;51.206;6.888;2023-02-28T14:39:05;2.23;;;2.03;;
5245;SDS011;54412;51.206;6.888;2023-02-28T14:41:49;2.33;;;2.13;;
5245;SDS011;54412;51.206;6.888;2023-02-28T14:44:22;7.27;;;2.17;;
5245;SDS011;54412;51.206;6.888;2023-02-28T14:46:52;3.23;;;2.00;;
5245;SDS011;54412;51.206;6.888;2023-02-28T14:49:29;2.53;;;2.20;;
5245;SDS011;54412;51.206;6.888;2023-02-28T14:52:05;2.07;;;1.90;;
5245;SDS011;54412;51.206;6.888;2023-02-28T14:54:35;2.30;;;2.10;;
5245;SDS011;54412;51.206;6.888;2023-02-28T14:57:02;2.60;;;2.40;;
5245;SDS011;54412;51.206;6.888;2023-02-28T14:59:31;8.07;;;2.30;;
5245;SDS011;54412;51.206;6.888;2023-02-28T15:02:19;2.20;;;2.10;;
5245;SDS011;54412;51.206;6.888;2023-02-28T15:05:01;2.50;;;2.30;;
5245;SDS011;54412;51.206;6.888;2023-02-28T15:07:35;2.40;;;2.20;;
5245;SDS011;54412;51.206;6.888;2023-02-28T15:10:20;3.13;;;2.00;;
5245;SDS011;54412;51.206;6.888;2023-02-28T15:15:21;2.27;;;2.17;;
5245;SDS011;54412;51.206;6.888;2023-02-28T15:18:38;2.87;;;2.07;;
5245;SDS011;54412;51.206;6.888;2023-02-28T15:21:22;2.27;;;2.07;;
5245;SDS011;54412;51.206;6.888;2023-02-28T15:26:53;7.00;;;2.77;;
5245;SDS011;54412;51.206;6.888;2023-02-28T15:29:24;3.00;;;2.30;;
5245;SDS011;54412;51.206;6.888;2023-02-28T15:32:00;5.23;;;2.80;;
5245;SDS011;54412;51.206;6.888;2023-02-28T15:34:34;3.20;;;2.20;;
5245;SDS011;54412;51.206;6.888;2023-02-28T15:45:34;5.83;;;2.17;;
5245;SDS011;54412;51.206;6.888;2023-02-28T15:48:12;4.07;;;3.10;;
5245;SDS011;54412;51.206;6.888;2023-02-28T15:50:55;2.60;;;1.93;;
5245;SDS011;54412;51.206;6.888;2023-02-28T15:53:36;2.07;;;1.97;;
5245;SDS011;54412;51.206;6.888;2023-02-28T15:56:32;1.90;;;1.80;;
5245;SDS011;54412;51.206;6.888;2023-02-28T15:59:04;2.70;;;2.30;;
5245;SDS011;54412;51.206;6.888;2023-02-28T16:01:38;2.03;;;1.93;;
5245;SDS011;54412;51.206;6.888;2023-02-28T16:04:13;2.40;;;2.20;;
5245;SDS011;54412;51.206;6.888;2023-02-28T16:06:42;2.37;;;2.17;;
5245;SDS011;54412;51.206;6.888;2023-02-28T16:09:25;11.80;;;3.07;;
5245;SDS011;54412;51.206;6.888;2023-02-28T16:11:53;4.40;;;2.50;;
5245;SDS011;54412;51.206;6.888;2023-02-28T16:14:22;3.33;;;2.70;;
5245;SDS011;54412;51.206;6.888;2023-02-28T16:17:04;2.60;;;2.13;;
5245;SDS011;54412;51.206;6.888;2023-02-28T16:19:37;3.93;;;2.37;;
5245;SDS011;54412;51.206;6.888;2023-02-28T16:22:02;2.40;;;2.20;;
5245;SDS011;54412;51.206;6.888;2023-02-28T16:24:28;4.40;;;2.13;;
5245;SDS011;54412;51.206;6.888;2023-02-28T16:26:54;4.03;;;2.77;;
5245;SDS011;54412;51.206;6.888;2023-02-28T16:29:40;5.80;;;2.70;;
5245;SDS011;54412;51.206;6.888;2023-02-28T16:32:06;3.67;;;2.40;;
5245;SDS011;54412;51.206;6.888;2023-02-28T16:34:32;4.87;;;2.40;;
5245;SDS011;54412;51.206;6.888;2023-02-28T16:36:58;4.63;;;2.43;;
5245;SDS011;54412;51.206;6.888;2023-02-28T16:39:24;3.90;;;2.97;;
5245;SDS011;54412;51.206;6.888;2023-02-28T16:41:50;4.60;;;2.83;;
5245;SDS011;54412;51.206;6.888;2023-02-28T16:44:29;2.83;;;2.60;;
5245;SDS011;54412;51.206;6.888;2023-02-28T16:46:59;3.77;;;2.57;;
5245;SDS011;54412;51.206;6.888;2023-02-28T16:49:27;4.30;;;3.00;;
5245;SDS011;54412;51.206;6.888;2023-02-28T16:51:53;2.77;;;2.57;;
5245;SDS011;54412;51.206;6.888;2023-02-28T16:54:19;4.80;;;3.10;;
5245;SDS011;54412;51.206;6.888;2023-02-28T16:56:45;2.60;;;2.40;;
5245;SDS011;54412;51.206;6.888;2023-02-28T16:59:13;3.60;;;3.10;;
5245;SDS011;54412;51.206;6.888;2023-02-28T17:01:46;2.30;;;2.20;;
5245;SDS011;54412;51.206;6.888;2023-02-28T17:04:12;2.60;;;2.40;;
5245;SDS011;54412;51.206;6.888;2023-02-28T17:06:39;4.37;;;2.97;;
5245;SDS011;54412;51.206;6.888;2023-02-28T17:09:04;2.50;;;2.30;;
5245;SDS011;54412;51.206;6.888;2023-02-28T17:11:33;3.27;;;3.00;;
5245;SDS011;54412;51.206;6.888;2023-02-28T17:13:59;4.10;;;2.87;;
5245;SDS011;54412;51.206;6.888;2023-02-28T17:16:25;6.53;;;3.47;;
5245;SDS011;54412;51.206;6.888;2023-02-28T17:19:00;2.83;;;2.60;;
5245;SDS011;54412;51.206;6.888;2023-02-28T17:21:31;10.67;;;2.60;;
5245;SDS011;54412;51.206;6.888;2023-02-28T17:23:58;8.07;;;3.53;;
5245;SDS011;54412;51.206;6.888;2023-02-28T17:26:25;4.40;;;2.70;;
5245;SDS011;54412;51.206;6.888;2023-02-28T17:28:52;3.00;;;2.80;;
5245;SDS011;54412;51.206;6.888;2023-02-28T17:31:23;5.40;;;3.70;;
5245;SDS011;54412;51.206;6.888;2023-02-28T17:33:51;2.60;;;2.40;;
5245;SDS011;54412;51.206;6.888;2023-02-28T17:36:23;3.20;;;2.60;;
5245;SDS011;54412;51.206;6.888;2023-02-28T17:38:52;3.23;;;2.90;;
5245;SDS011;54412;51.206;6.888;2023-02-28T17:41:20;3.30;;;3.00;;
5245;SDS011;54412;51.206;6.888;2023-02-28T17:43:46;3.17;;;2.87;;
5245;SDS011;54412;51.206;6.888;2023-02-28T17:46:18;7.77;;;3.33;;
5245;SDS011;54412;51.206;6.888;2023-02-28T17:48:48;6.90;;;3.30;;
5245;SDS011;54412;51.206;6.888;2023-02-28T17:51:15;4.40;;;3.20;;
5245;SDS011;54412;51.206;6.888;2023-02-28T17:53:43;2.93;;;2.73;;
5245;SDS011;54412;51.206;6.888;2023-02-28T17:56:17;3.10;;;2.90;;
5245;SDS011;54412;51.206;6.888;2023-02-28T17:58:52;7.83;;;4.40;;
5245;SDS011;54412;51.206;6.888;2023-02-28T18:01:20;6.13;;;3.00;;